createdAt,value
2022-09-11T00:01:44.606Z,2.90
2022-09-11T00:04:13.105Z,2.92
2022-09-11T00:06:41.209Z,2.97
2022-09-11T00:09:09.877Z,2.60
2022-09-11T00:11:41.468Z,2.10
2022-09-11T00:14:13.997Z,2.40
2022-09-11T00:16:45.460Z,2.67
2022-09-11T00:19:15.950Z,2.38
2022-09-11T00:21:44.087Z,2.25
2022-09-11T00:24:12.725Z,2.58
2022-09-11T00:26:42.480Z,2.05
2022-09-11T00:29:12.775Z,1.70
2022-09-11T00:31:42.042Z,2.17
2022-09-11T00:34:10.655Z,2.22
2022-09-11T00:36:42.076Z,2.20
2022-09-11T00:39:12.023Z,1.98
2022-09-11T00:41:42.989Z,2.10
2022-09-11T00:44:45.470Z,2.25
2022-09-11T00:47:19.316Z,2.03
2022-09-11T00:49:52.213Z,2.00
2022-09-11T00:52:25.570Z,2.20
2022-09-11T00:54:57.410Z,2.00
2022-09-11T00:57:30.743Z,2.00
2022-09-11T01:00:02.834Z,2.15
2022-09-11T01:02:35.117Z,1.88
2022-09-11T01:05:04.850Z,1.70
2022-09-11T01:07:35.556Z,1.77
2022-09-11T01:10:04.792Z,1.90
2022-09-11T01:12:44.050Z,2.10
2022-09-11T01:15:20.476Z,2.00
2022-09-11T01:17:56.983Z,1.92
2022-09-11T01:20:37.586Z,2.03
2022-09-11T01:23:35.416Z,1.83
2022-09-11T01:26:22.915Z,1.92
2022-09-11T01:28:58.402Z,2.05
2022-09-11T01:31:31.554Z,1.90
2022-09-11T01:34:02.962Z,1.90
2022-09-11T01:36:36.766Z,2.20
2022-09-11T01:39:06.136Z,2.38
2022-09-11T01:41:40.945Z,2.40
2022-09-11T01:44:15.709Z,2.45
2022-09-11T01:46:49.944Z,2.50
2022-09-11T01:49:21.842Z,2.72
2022-09-11T01:51:53.597Z,1.90
2022-09-11T01:54:25.062Z,2.65
2022-09-11T01:56:56.979Z,2.50
2022-09-11T01:59:32.561Z,2.55
2022-09-11T02:02:07.398Z,2.50
2022-09-11T02:04:41.033Z,3.42
2022-09-11T02:07:12.398Z,4.00
2022-09-11T02:09:46.537Z,3.50
2022-09-11T02:12:19.099Z,2.83
2022-09-11T02:14:51.725Z,2.67
2022-09-11T02:17:28.270Z,3.00
2022-09-11T02:19:59.256Z,3.33
2022-09-11T02:22:28.034Z,2.83
2022-09-11T02:24:56.783Z,2.55
2022-09-11T02:27:28.960Z,3.22
2022-09-11T02:29:59.299Z,3.03
2022-09-11T02:32:28.131Z,2.88
2022-09-11T02:34:57.687Z,2.53
2022-09-11T02:37:39.635Z,3.17
2022-09-11T02:40:22.137Z,2.45
2022-09-11T02:43:09.118Z,2.70
2022-09-11T02:45:48.864Z,3.20
2022-09-11T02:48:33.847Z,2.78
2022-09-11T02:51:10.034Z,2.42
2022-09-11T02:53:47.982Z,2.90
2022-09-11T02:56:22.762Z,2.88
2022-09-11T02:58:56.369Z,2.80
2022-09-11T03:01:26.347Z,3.13
2022-09-11T03:03:54.839Z,3.70
2022-09-11T03:06:25.667Z,3.67
2022-09-11T03:08:54.247Z,3.95
2022-09-11T03:11:22.318Z,4.18
2022-09-11T03:13:50.803Z,4.18
2022-09-11T03:16:19.593Z,4.68
2022-09-11T03:18:49.113Z,4.20
2022-09-11T03:21:17.613Z,5.25
2022-09-11T03:23:46.222Z,6.13
2022-09-11T03:26:14.723Z,6.18
2022-09-11T03:28:44.233Z,5.88
2022-09-11T03:31:14.341Z,6.60
2022-09-11T03:33:42.407Z,6.55
2022-09-11T03:36:12.489Z,7.22
2022-09-11T03:38:41.208Z,7.07
2022-09-11T03:41:09.535Z,6.88
2022-09-11T03:43:38.238Z,6.50
2022-09-11T03:46:06.622Z,6.10
2022-09-11T03:48:35.520Z,6.25
2022-09-11T03:51:05.708Z,6.05
2022-09-11T03:53:36.017Z,5.82
2022-09-11T03:56:05.110Z,6.22
2022-09-11T03:58:33.566Z,5.40
2022-09-11T04:01:02.187Z,5.00
2022-09-11T04:03:31.489Z,4.95
2022-09-11T04:06:02.234Z,5.13
2022-09-11T04:08:34.038Z,5.30
2022-09-11T04:11:05.873Z,4.95
2022-09-11T04:13:36.147Z,5.07
2022-09-11T04:16:07.082Z,5.53
2022-09-11T04:18:37.630Z,4.68
2022-09-11T04:21:06.301Z,5.50
2022-09-11T04:23:34.859Z,5.50
2022-09-11T04:26:05.311Z,5.10
2022-09-11T04:28:33.342Z,5.30
2022-09-11T04:31:04.226Z,5.45
2022-09-11T04:33:32.711Z,5.80
2022-09-11T04:36:06.514Z,5.22
2022-09-11T04:38:35.462Z,4.97
2022-09-11T04:41:05.728Z,5.13
2022-09-11T04:43:35.272Z,5.32
2022-09-11T04:46:03.853Z,5.70
2022-09-11T04:48:36.578Z,4.78
2022-09-11T04:51:07.614Z,4.47
2022-09-11T04:53:38.094Z,4.88
2022-09-11T04:56:09.655Z,4.65
2022-09-11T04:58:38.070Z,4.55
2022-09-11T05:01:09.279Z,5.15
2022-09-11T05:03:37.411Z,4.80
2022-09-11T05:06:06.729Z,4.47
2022-09-11T05:08:36.795Z,4.60
2022-09-11T05:11:06.800Z,4.25
2022-09-11T05:13:44.001Z,4.45
2022-09-11T05:16:15.627Z,3.92
2022-09-11T05:18:45.245Z,4.78
2022-09-11T05:21:18.566Z,4.25
2022-09-11T05:23:49.994Z,4.90
2022-09-11T05:26:19.787Z,5.05
2022-09-11T05:28:49.984Z,5.60
2022-09-11T05:31:19.486Z,5.45
2022-09-11T05:33:48.382Z,5.82
2022-09-11T05:36:17.935Z,6.13
2022-09-11T05:38:46.916Z,6.45
2022-09-11T05:41:15.177Z,5.55
2022-09-11T05:43:44.145Z,6.13
2022-09-11T05:46:15.663Z,5.80
2022-09-11T05:48:44.435Z,6.45
2022-09-11T05:51:14.843Z,6.07
2022-09-11T05:53:43.380Z,6.85
2022-09-11T05:56:14.882Z,6.15
2022-09-11T05:58:43.729Z,6.40
2022-09-11T06:01:14.811Z,6.03
2022-09-11T06:03:43.457Z,5.45
2022-09-11T06:06:13.773Z,5.35
2022-09-11T06:08:44.236Z,5.43
2022-09-11T06:11:14.321Z,5.65
2022-09-11T06:13:44.369Z,4.95
2022-09-11T06:16:18.530Z,5.72
2022-09-11T06:18:49.844Z,5.15
2022-09-11T06:21:20.810Z,5.40
2022-09-11T06:23:50.426Z,5.85
2022-09-11T06:26:19.973Z,6.22
2022-09-11T06:28:48.615Z,5.53
2022-09-11T06:31:19.498Z,5.82
2022-09-11T06:33:49.255Z,6.35
2022-09-11T06:36:19.341Z,6.28
2022-09-11T06:38:48.813Z,5.80
2022-09-11T06:41:17.976Z,5.22
2022-09-11T06:43:46.501Z,5.22
2022-09-11T06:46:16.477Z,5.13
2022-09-11T06:48:48.489Z,5.15
2022-09-11T06:51:18.663Z,4.30
2022-09-11T06:53:48.095Z,4.38
2022-09-11T06:56:17.896Z,5.28
2022-09-11T06:58:46.299Z,5.13
2022-09-11T07:01:16.858Z,4.47
2022-09-11T07:03:48.225Z,4.85
2022-09-11T07:06:17.945Z,4.53
2022-09-11T07:08:51.234Z,4.72
2022-09-11T07:11:19.839Z,5.30
2022-09-11T07:13:48.343Z,4.60
2022-09-11T07:16:16.824Z,4.40
2022-09-11T07:18:47.956Z,4.50
2022-09-11T07:21:17.410Z,3.75
2022-09-11T07:23:49.126Z,4.53
2022-09-11T07:26:17.948Z,4.35
2022-09-11T07:28:49.176Z,4.13
2022-09-11T07:31:21.037Z,4.03
2022-09-11T07:33:52.414Z,3.70
2022-09-11T07:36:21.983Z,3.70
2022-09-11T07:38:51.312Z,3.80
2022-09-11T07:41:22.098Z,3.53
2022-09-11T07:43:53.972Z,3.90
2022-09-11T07:46:23.012Z,4.05
2022-09-11T07:48:52.420Z,3.65
2022-09-11T07:51:21.612Z,3.70
2022-09-11T07:53:54.335Z,2.92
2022-09-11T07:56:24.611Z,3.30
2022-09-11T07:58:54.313Z,3.22
2022-09-11T08:01:23.976Z,3.15
2022-09-11T08:03:58.356Z,2.88
2022-09-11T08:06:27.971Z,3.25
2022-09-11T08:08:57.904Z,3.13
2022-09-11T08:11:27.656Z,3.50
2022-09-11T08:13:57.268Z,3.72
2022-09-11T08:16:28.145Z,3.63
2022-09-11T08:18:58.375Z,3.40
2022-09-11T08:21:28.136Z,3.33
2022-09-11T08:23:56.188Z,3.15
2022-09-11T08:26:26.326Z,3.70
2022-09-11T08:28:56.296Z,3.40
2022-09-11T08:31:27.526Z,3.25
2022-09-11T08:33:57.585Z,3.72
2022-09-11T08:36:26.617Z,3.60
2022-09-11T08:38:55.289Z,3.42
2022-09-11T08:41:36.523Z,3.72
2022-09-11T08:44:14.697Z,2.92
2022-09-11T08:46:47.814Z,3.30
2022-09-11T08:49:24.831Z,3.38
2022-09-11T08:51:54.809Z,3.03
2022-09-11T08:54:29.469Z,2.80
2022-09-11T08:57:05.706Z,3.80
2022-09-11T08:59:45.266Z,3.03
2022-09-11T09:02:27.115Z,3.08
2022-09-11T09:05:20.435Z,3.00
2022-09-11T09:08:02.938Z,3.03
2022-09-11T09:10:46.947Z,3.15
2022-09-11T09:13:34.198Z,3.03
2022-09-11T09:16:10.675Z,3.10
2022-09-11T09:18:43.015Z,3.33
2022-09-11T09:21:17.339Z,3.70
2022-09-11T09:23:50.703Z,3.53
2022-09-11T09:26:20.960Z,3.88
2022-09-11T09:28:51.933Z,3.90
2022-09-11T09:31:22.522Z,3.67
2022-09-11T09:33:56.251Z,3.55
2022-09-11T09:36:31.414Z,3.58
2022-09-11T09:39:00.645Z,3.78
2022-09-11T09:41:54.493Z,3.78
2022-09-11T09:44:38.851Z,3.90
2022-09-11T09:47:12.612Z,3.85
2022-09-11T09:49:41.093Z,4.70
2022-09-11T09:52:18.772Z,4.38
2022-09-11T09:54:55.051Z,3.97
2022-09-11T09:57:26.224Z,4.50
2022-09-11T09:59:58.449Z,4.13
2022-09-11T10:02:45.461Z,4.50
2022-09-11T10:05:28.096Z,4.20
2022-09-11T10:07:58.915Z,3.95
2022-09-11T10:10:30.333Z,4.32
2022-09-11T10:13:18.009Z,4.88
2022-09-11T10:15:49.841Z,4.13
2022-09-11T10:18:34.113Z,5.00
2022-09-11T10:21:29.878Z,5.28
2022-09-11T10:24:02.187Z,5.00
2022-09-11T10:26:34.508Z,5.60
2022-09-11T10:29:08.281Z,5.43
2022-09-11T10:31:40.459Z,5.82
2022-09-11T10:34:15.847Z,5.20
2022-09-11T10:36:53.829Z,5.05
2022-09-11T10:39:25.797Z,5.60
2022-09-11T10:41:57.601Z,4.65
2022-09-11T10:44:26.478Z,4.35
2022-09-11T10:47:06.545Z,5.03
2022-09-11T10:49:35.361Z,5.20
2022-09-11T10:52:17.590Z,4.55
2022-09-11T10:54:58.516Z,5.03
2022-09-11T10:57:31.760Z,5.10
2022-09-11T11:00:06.931Z,4.82
2022-09-11T11:02:38.886Z,4.60
2022-09-11T11:05:14.631Z,4.82
2022-09-11T11:08:05.786Z,5.05
2022-09-11T11:10:48.956Z,5.43
2022-09-11T11:13:32.865Z,4.97
2022-09-11T11:16:09.534Z,5.13
2022-09-11T11:18:53.264Z,5.18
2022-09-11T11:21:37.831Z,6.28
2022-09-11T11:24:21.844Z,5.70
2022-09-11T11:27:06.856Z,6.03
2022-09-11T11:29:56.266Z,5.68
2022-09-11T11:32:44.359Z,5.05
2022-09-11T11:35:22.759Z,5.32
2022-09-11T11:37:54.989Z,5.95
2022-09-11T11:40:28.150Z,6.00
2022-09-11T11:43:02.695Z,5.30
2022-09-11T11:45:35.562Z,5.47
2022-09-11T11:48:10.434Z,5.00
2022-09-11T11:50:43.302Z,4.55
2022-09-11T11:53:18.152Z,4.72
2022-09-11T11:55:55.992Z,4.63
2022-09-11T11:58:38.697Z,4.93
2022-09-11T12:01:14.125Z,4.70
2022-09-11T12:03:48.222Z,4.90
2022-09-11T12:06:17.786Z,5.32
2022-09-11T12:08:46.730Z,4.75
2022-09-11T12:11:18.604Z,4.55
2022-09-11T12:13:49.179Z,4.18
2022-09-11T12:16:22.141Z,4.30
2022-09-11T12:19:15.854Z,4.32
2022-09-11T12:22:14.492Z,3.70
2022-09-11T12:24:55.155Z,4.00
2022-09-11T12:27:53.381Z,3.83
2022-09-11T12:30:27.009Z,3.40
2022-09-11T12:32:55.747Z,3.55
2022-09-11T12:35:28.527Z,4.15
2022-09-11T12:38:01.757Z,4.55
2022-09-11T12:40:39.497Z,4.50
2022-09-11T12:43:28.881Z,4.35
2022-09-11T12:45:58.954Z,4.55
2022-09-11T12:48:38.756Z,3.65
2022-09-11T12:51:19.785Z,4.82
2022-09-11T12:53:50.782Z,4.32
2022-09-11T12:56:22.302Z,4.28
2022-09-11T12:58:56.081Z,4.55
2022-09-11T13:01:31.003Z,4.13
2022-09-11T13:04:03.314Z,4.10
2022-09-11T13:06:41.400Z,4.10
2022-09-11T13:09:20.029Z,3.90
2022-09-11T13:11:50.659Z,3.80
2022-09-11T13:14:51.137Z,3.90
2022-09-11T13:17:31.570Z,4.20
2022-09-11T13:20:21.975Z,9.23
2022-09-11T13:22:56.178Z,9.10
2022-09-11T13:25:28.341Z,10.32
2022-09-11T13:27:59.001Z,11.40
2022-09-11T13:30:27.487Z,14.10
2022-09-11T13:33:06.015Z,8.27
2022-09-11T13:35:35.986Z,8.07
2022-09-11T13:38:10.120Z,7.50
2022-09-11T13:40:47.719Z,6.93
2022-09-11T13:43:19.291Z,5.45
2022-09-11T13:45:47.576Z,4.95
2022-09-11T13:48:24.324Z,3.13
2022-09-11T13:50:53.844Z,3.58
2022-09-11T13:53:23.909Z,3.33
2022-09-11T13:55:52.441Z,3.45
2022-09-11T13:58:25.182Z,3.30
2022-09-11T14:00:55.919Z,3.38
2022-09-11T14:03:28.775Z,2.97
2022-09-11T14:05:59.018Z,2.70
2022-09-11T14:08:33.118Z,3.30
2022-09-11T14:11:07.066Z,3.70
2022-09-11T14:13:44.834Z,3.30
2022-09-11T14:16:23.802Z,2.80
2022-09-11T14:18:58.650Z,2.80
2022-09-11T14:21:32.512Z,2.90
2022-09-11T14:24:01.576Z,2.83
2022-09-11T14:26:42.458Z,2.80
2022-09-11T14:29:25.127Z,2.65
2022-09-11T14:31:54.001Z,2.47
2022-09-11T14:34:27.942Z,2.20
2022-09-11T14:36:59.718Z,2.88
2022-09-11T14:39:38.512Z,2.70
2022-09-11T14:42:09.268Z,2.40
2022-09-11T14:44:39.921Z,2.55
2022-09-11T14:47:09.259Z,2.47
2022-09-11T14:49:38.958Z,2.17
2022-09-11T14:52:08.122Z,2.33
2022-09-11T14:54:36.189Z,2.20
2022-09-11T14:57:04.753Z,2.58
2022-09-11T14:59:33.015Z,2.35
2022-09-11T15:02:01.442Z,2.33
2022-09-11T15:04:30.026Z,2.20
2022-09-11T15:07:00.265Z,2.00
2022-09-11T15:09:28.865Z,2.20
2022-09-11T15:11:56.887Z,2.05
2022-09-11T15:14:45.031Z,2.50
2022-09-11T15:17:17.944Z,2.40
2022-09-11T15:19:49.902Z,2.30
2022-09-11T15:22:19.763Z,2.25
2022-09-11T15:24:50.238Z,2.42
2022-09-11T15:27:19.137Z,2.28
2022-09-11T15:29:47.669Z,2.15
2022-09-11T15:32:16.462Z,2.30
2022-09-11T15:34:45.811Z,2.00
2022-09-11T15:37:15.685Z,2.20
2022-09-11T15:39:45.514Z,2.30
2022-09-11T15:42:13.701Z,2.10
2022-09-11T15:44:42.323Z,2.22
2022-09-11T15:47:11.473Z,2.70
2022-09-11T15:49:43.017Z,2.28
2022-09-11T15:52:11.309Z,2.35
2022-09-11T15:54:39.887Z,2.78
2022-09-11T15:57:09.326Z,2.50
2022-09-11T15:59:37.852Z,2.58
2022-09-11T16:02:06.356Z,2.30
2022-09-11T16:04:34.889Z,2.63
2022-09-11T16:07:03.657Z,2.90
2022-09-11T16:09:33.571Z,2.80
2022-09-11T16:12:03.326Z,3.00
2022-09-11T16:14:34.493Z,2.42
2022-09-11T16:17:03.949Z,2.70
2022-09-11T16:19:32.402Z,2.67
2022-09-11T16:22:02.843Z,2.65
2022-09-11T16:24:32.818Z,2.58
2022-09-11T16:27:02.089Z,3.08
2022-09-11T16:29:49.407Z,2.60
2022-09-11T16:32:28.916Z,2.75
2022-09-11T16:34:59.448Z,2.90
2022-09-11T16:37:28.855Z,2.63
2022-09-11T16:39:56.991Z,2.53
2022-09-11T16:42:26.539Z,2.60
2022-09-11T16:44:55.102Z,2.83
2022-09-11T16:47:24.952Z,2.78
2022-09-11T16:50:09.324Z,3.00
2022-09-11T16:52:39.041Z,3.60
2022-09-11T16:55:09.705Z,3.42
2022-09-11T16:57:38.717Z,4.10
2022-09-11T17:00:08.777Z,4.97
2022-09-11T17:02:39.047Z,5.03
2022-09-11T17:05:09.139Z,5.65
2022-09-11T17:07:37.653Z,5.22
2022-09-11T17:10:06.740Z,5.07
2022-09-11T17:12:34.786Z,4.90
2022-09-11T17:15:03.883Z,4.82
2022-09-11T17:17:32.976Z,4.25
2022-09-11T17:20:03.041Z,3.90
2022-09-11T17:22:31.158Z,3.28
2022-09-11T17:24:59.655Z,3.80
2022-09-11T17:27:27.691Z,3.50
2022-09-11T17:29:57.307Z,3.10
2022-09-11T17:32:28.919Z,3.42
2022-09-11T17:34:58.744Z,3.70
2022-09-11T17:37:29.277Z,3.10
2022-09-11T17:39:58.096Z,3.00
2022-09-11T17:42:28.744Z,3.03
2022-09-11T17:44:57.523Z,3.10
2022-09-11T17:47:25.975Z,3.20
2022-09-11T17:49:54.551Z,2.88
2022-09-11T17:52:22.596Z,2.80
2022-09-11T17:54:52.453Z,3.10
2022-09-11T17:57:20.556Z,3.40
2022-09-11T17:59:50.863Z,3.13
2022-09-11T18:02:19.818Z,3.08
2022-09-11T18:04:49.455Z,3.60
2022-09-11T18:07:18.275Z,3.58
2022-09-11T18:09:47.034Z,3.10
2022-09-11T18:12:16.453Z,3.25
2022-09-11T18:14:45.081Z,3.45
2022-09-11T18:17:13.225Z,3.17
2022-09-11T18:19:41.323Z,3.22
2022-09-11T18:22:10.102Z,3.00
2022-09-11T18:24:39.780Z,3.03
2022-09-11T18:27:09.756Z,3.15
2022-09-11T18:29:41.310Z,3.30
2022-09-11T18:32:10.310Z,3.00
2022-09-11T18:34:38.988Z,3.40
2022-09-11T18:37:07.753Z,2.85
2022-09-11T18:39:36.074Z,3.42
2022-09-11T18:42:07.706Z,3.00
2022-09-11T18:44:36.989Z,3.20
2022-09-11T18:47:06.753Z,3.30
2022-09-11T18:49:34.856Z,3.22
2022-09-11T18:52:04.073Z,3.08
2022-09-11T18:54:33.645Z,3.10
2022-09-11T18:57:03.623Z,3.65
2022-09-11T18:59:32.072Z,3.30
2022-09-11T19:02:01.239Z,3.88
2022-09-11T19:04:31.421Z,3.80
2022-09-11T19:07:00.397Z,3.70
2022-09-11T19:09:29.419Z,3.25
2022-09-11T19:12:00.303Z,3.60
2022-09-11T19:14:28.987Z,3.47
2022-09-11T19:16:57.105Z,3.20
2022-09-11T19:19:25.891Z,3.28
2022-09-11T19:21:55.329Z,3.00
2022-09-11T19:24:28.195Z,3.65
2022-09-11T19:26:56.623Z,3.72
2022-09-11T19:29:24.671Z,3.60
2022-09-11T19:31:55.166Z,3.13
2022-09-11T19:34:24.908Z,3.40
2022-09-11T19:36:53.423Z,3.78
2022-09-11T19:39:23.340Z,3.72
2022-09-11T19:41:51.920Z,3.65
2022-09-11T19:44:20.516Z,3.33
2022-09-11T19:46:50.396Z,3.80
2022-09-11T19:49:18.499Z,3.40
2022-09-11T19:51:46.576Z,3.65
2022-09-11T19:54:15.327Z,3.97
2022-09-11T19:56:45.787Z,3.63
2022-09-11T19:59:14.709Z,4.40
2022-09-11T20:01:43.440Z,4.05
2022-09-11T20:04:13.579Z,4.22
2022-09-11T20:06:41.733Z,3.90
2022-09-11T20:12:01.115Z,3.92
2022-09-11T20:14:30.372Z,3.92
2022-09-11T20:17:00.539Z,3.83
2022-09-11T20:19:29.445Z,3.88
2022-09-11T20:21:57.635Z,3.95
2022-09-11T20:24:25.829Z,4.25
2022-09-11T20:26:55.190Z,4.32
2022-09-11T20:29:24.709Z,4.20
2022-09-11T20:31:54.137Z,4.57
2022-09-11T20:34:26.143Z,4.50
2022-09-11T20:36:54.628Z,5.35
2022-09-11T20:39:23.341Z,5.03
2022-09-11T20:41:51.390Z,5.15
2022-09-11T20:44:19.962Z,4.75
2022-09-11T20:46:49.384Z,5.20
2022-09-11T20:49:17.913Z,4.78
2022-09-11T20:51:46.008Z,5.32
2022-09-11T20:54:14.174Z,5.28
2022-09-11T20:56:42.212Z,5.85
2022-09-11T20:59:10.827Z,5.18
2022-09-11T21:01:39.338Z,5.80
2022-09-11T21:04:09.163Z,5.35
2022-09-11T21:06:37.743Z,5.45
2022-09-11T21:09:08.347Z,4.82
2022-09-11T21:11:37.684Z,4.47
2022-09-11T21:14:06.800Z,4.75
2022-09-11T21:16:35.481Z,4.75
2022-09-11T21:19:04.331Z,4.55
2022-09-11T21:21:35.882Z,4.20
2022-09-11T21:24:05.657Z,4.00
2022-09-11T21:26:35.912Z,4.45
2022-09-11T21:29:06.540Z,4.25
2022-09-11T21:31:35.342Z,3.78
2022-09-11T21:34:03.946Z,4.43
2022-09-11T21:36:33.594Z,4.15
2022-09-11T21:39:02.114Z,3.58
2022-09-11T21:41:30.156Z,4.53
2022-09-11T21:43:58.645Z,3.33
2022-09-11T21:46:26.857Z,3.78
2022-09-11T21:48:55.424Z,3.85
2022-09-11T21:51:23.625Z,4.93
2022-09-11T21:53:58.271Z,5.28
2022-09-11T21:56:29.898Z,4.40
2022-09-11T21:58:58.607Z,4.25
2022-09-11T22:01:28.888Z,4.68
2022-09-11T22:03:56.994Z,3.90
2022-09-11T22:06:25.786Z,3.90
2022-09-11T22:08:56.711Z,4.50
2022-09-11T22:11:26.383Z,4.55
2022-09-11T22:13:55.053Z,4.22
2022-09-11T22:16:23.501Z,4.00
2022-09-11T22:18:54.533Z,4.03
2022-09-11T22:21:23.030Z,4.57
2022-09-11T22:23:51.047Z,4.30
2022-09-11T22:26:24.052Z,5.05
2022-09-11T22:28:53.237Z,4.88
2022-09-11T22:31:23.769Z,4.75
2022-09-11T22:33:52.641Z,5.00
2022-09-11T22:36:24.058Z,4.85
2022-09-11T22:38:52.211Z,5.07
2022-09-11T22:41:22.805Z,5.38
2022-09-11T22:43:51.005Z,5.28
2022-09-11T22:46:21.256Z,5.07
2022-09-11T22:48:49.978Z,4.60
2022-09-11T22:51:18.533Z,4.78
2022-09-11T22:53:46.814Z,5.18
2022-09-11T22:56:15.764Z,4.68
2022-09-11T22:58:45.231Z,4.80
2022-09-11T23:01:17.585Z,5.10
2022-09-11T23:03:48.199Z,5.15
2022-09-11T23:06:33.899Z,5.60
2022-09-11T23:09:05.402Z,5.70
2022-09-11T23:11:34.311Z,6.00
2022-09-11T23:14:03.718Z,6.10
2022-09-11T23:16:32.293Z,5.25
2022-09-11T23:19:03.388Z,5.03
2022-09-11T23:21:34.494Z,5.13
2022-09-11T23:24:04.270Z,4.80
2022-09-11T23:26:32.752Z,4.90
2022-09-11T23:29:01.293Z,5.30
2022-09-11T23:31:33.747Z,4.93
2022-09-11T23:34:03.730Z,4.85
2022-09-11T23:36:32.287Z,4.95
2022-09-11T23:39:01.091Z,4.78
2022-09-11T23:41:31.951Z,5.55
2022-09-11T23:44:00.414Z,5.68
2022-09-11T23:46:30.345Z,5.75
2022-09-11T23:48:58.836Z,4.97
2022-09-11T23:51:27.476Z,5.60
2022-09-11T23:53:55.949Z,5.82
2022-09-11T23:56:23.978Z,5.78
2022-09-11T23:58:52.563Z,6.18
